createdAt,value
2022-07-26T00:00:32.413Z,0
2022-07-26T00:01:35.948Z,0
2022-07-26T00:02:21.302Z,0
2022-07-26T00:03:21.222Z,0
2022-07-26T00:04:21.226Z,0
2022-07-26T00:05:21.221Z,0
2022-07-26T00:06:21.242Z,0
2022-07-26T00:07:21.239Z,0
2022-07-26T00:08:21.226Z,0
2022-07-26T00:09:21.242Z,0
2022-07-26T00:10:21.220Z,0
2022-07-26T00:11:21.227Z,0
2022-07-26T00:12:21.241Z,0
2022-07-26T00:13:21.229Z,0
2022-07-26T00:14:21.227Z,0
2022-07-26T00:15:21.243Z,0
2022-07-26T00:16:21.283Z,0
2022-07-26T00:17:21.250Z,0
2022-07-26T00:18:21.226Z,0
2022-07-26T00:19:21.240Z,0
2022-07-26T00:20:21.227Z,0
2022-07-26T00:21:21.222Z,0
2022-07-26T00:22:21.251Z,0
2022-07-26T00:23:21.230Z,0
2022-07-26T00:24:21.256Z,0
2022-07-26T00:25:21.217Z,0
2022-07-26T00:26:21.220Z,0
2022-07-26T00:27:54.952Z,0
2022-07-26T00:28:28.534Z,0
2022-07-26T00:29:28.277Z,0
2022-07-26T00:30:21.219Z,0
2022-07-26T00:31:21.266Z,0
2022-07-26T00:32:22.392Z,0
2022-07-26T00:33:21.238Z,0
2022-07-26T00:34:21.231Z,0
2022-07-26T00:35:21.223Z,0
2022-07-26T00:36:29.181Z,0
2022-07-26T00:37:21.294Z,0
2022-07-26T00:38:21.236Z,0
2022-07-26T00:39:21.256Z,0
2022-07-26T00:40:28.199Z,0
2022-07-26T00:41:21.219Z,0
2022-07-26T00:42:21.224Z,0
2022-07-26T00:43:21.232Z,0
2022-07-26T00:44:21.223Z,0
2022-07-26T00:45:43.909Z,0
2022-07-26T00:46:21.430Z,0
2022-07-26T00:47:21.233Z,0
2022-07-26T00:48:36.231Z,0
2022-07-26T00:49:21.301Z,0
2022-07-26T00:50:21.221Z,0
2022-07-26T00:51:21.224Z,0
2022-07-26T00:52:21.228Z,0
2022-07-26T00:53:21.243Z,0
2022-07-26T00:54:21.236Z,0
2022-07-26T00:55:21.225Z,0
2022-07-26T00:56:21.358Z,0
2022-07-26T00:57:21.231Z,0
2022-07-26T00:58:21.267Z,0
2022-07-26T00:59:24.977Z,0
2022-07-26T01:00:32.250Z,0
2022-07-26T01:01:21.334Z,0
2022-07-26T01:02:21.268Z,0
2022-07-26T01:03:21.251Z,0
2022-07-26T01:04:21.221Z,0
2022-07-26T01:05:36.332Z,0
2022-07-26T01:06:23.983Z,0
2022-07-26T01:07:21.225Z,0
2022-07-26T01:08:21.235Z,0
2022-07-26T01:09:21.241Z,0
2022-07-26T01:10:21.225Z,0
2022-07-26T01:11:21.219Z,0
2022-07-26T01:12:26.280Z,0
2022-07-26T01:13:21.250Z,0
2022-07-26T01:14:34.612Z,0
2022-07-26T01:15:21.236Z,0
2022-07-26T01:16:27.719Z,0
2022-07-26T01:17:21.222Z,0
2022-07-26T01:18:21.258Z,0
2022-07-26T01:19:21.234Z,0
2022-07-26T01:20:21.231Z,0
2022-07-26T01:21:21.228Z,0
2022-07-26T01:22:29.369Z,0
2022-07-26T01:23:21.254Z,0
2022-07-26T01:24:21.256Z,0
2022-07-26T01:25:21.234Z,0
2022-07-26T01:26:21.242Z,0
2022-07-26T01:27:21.269Z,0
2022-07-26T01:28:21.261Z,0
2022-07-26T01:29:21.240Z,0
2022-07-26T01:30:25.121Z,0
2022-07-26T01:31:45.835Z,0
2022-07-26T01:32:21.234Z,0
2022-07-26T01:33:21.257Z,0
2022-07-26T01:34:21.243Z,0
2022-07-26T01:35:23.200Z,0
2022-07-26T01:36:21.236Z,0
2022-07-26T01:37:21.244Z,0
2022-07-26T01:38:21.258Z,0
2022-07-26T01:39:21.257Z,0
2022-07-26T01:40:21.270Z,0
2022-07-26T01:41:22.773Z,0
2022-07-26T01:42:21.228Z,0
2022-07-26T01:43:21.325Z,0
2022-07-26T01:44:21.223Z,0
2022-07-26T01:45:21.225Z,0
2022-07-26T01:46:21.290Z,0
2022-07-26T01:47:21.232Z,0
2022-07-26T01:48:21.230Z,0
2022-07-26T01:49:21.318Z,0
2022-07-26T01:50:21.233Z,0
2022-07-26T01:51:21.231Z,0
2022-07-26T01:52:21.245Z,0
2022-07-26T01:53:21.261Z,0
2022-07-26T01:54:22.458Z,0
2022-07-26T01:55:24.814Z,0
2022-07-26T01:56:21.239Z,0
2022-07-26T01:57:21.224Z,0
2022-07-26T01:58:21.244Z,0
2022-07-26T01:59:21.223Z,0
2022-07-26T02:00:21.222Z,0
2022-07-26T02:01:38.029Z,0
2022-07-26T02:02:21.345Z,0
2022-07-26T02:03:34.428Z,0
2022-07-26T02:04:21.226Z,0
2022-07-26T02:05:21.228Z,0
2022-07-26T02:06:21.235Z,0
2022-07-26T02:07:21.228Z,0
2022-07-26T02:08:21.296Z,0
2022-07-26T02:09:21.257Z,0
2022-07-26T02:10:21.225Z,0
2022-07-26T02:11:21.225Z,0
2022-07-26T02:12:21.225Z,0
2022-07-26T02:13:21.233Z,0
2022-07-26T02:14:31.992Z,0
2022-07-26T02:15:21.226Z,0
2022-07-26T02:16:21.299Z,0
2022-07-26T02:17:21.222Z,0
2022-07-26T02:18:21.230Z,0
2022-07-26T02:19:21.232Z,0
2022-07-26T02:20:21.255Z,0
2022-07-26T02:21:21.227Z,0
2022-07-26T02:22:30.834Z,0
2022-07-26T02:23:21.232Z,0
2022-07-26T02:24:21.249Z,0
2022-07-26T02:25:21.227Z,0
2022-07-26T02:26:38.140Z,0
2022-07-26T02:27:21.237Z,0
2022-07-26T02:28:21.233Z,0
2022-07-26T02:29:21.234Z,0
2022-07-26T02:30:21.226Z,0
2022-07-26T02:31:21.351Z,0
2022-07-26T02:32:21.232Z,0
2022-07-26T02:33:21.229Z,0
2022-07-26T02:34:21.242Z,0
2022-07-26T02:35:21.224Z,0
2022-07-26T02:36:21.229Z,0
2022-07-26T02:37:43.700Z,0
2022-07-26T02:38:21.225Z,0
2022-07-26T02:39:21.248Z,0
2022-07-26T02:40:21.283Z,0
2022-07-26T02:41:21.247Z,0
2022-07-26T02:42:28.768Z,0
2022-07-26T02:43:21.225Z,0
2022-07-26T02:44:21.252Z,0
2022-07-26T02:46:01.922Z,0
2022-07-26T02:46:21.268Z,0
2022-07-26T02:47:21.225Z,0
2022-07-26T02:48:21.226Z,0
2022-07-26T02:49:31.082Z,0
2022-07-26T02:50:21.233Z,0
2022-07-26T02:51:28.736Z,0
2022-07-26T02:52:21.250Z,0
2022-07-26T02:53:21.238Z,0
2022-07-26T02:54:21.257Z,0
2022-07-26T02:55:21.253Z,0
2022-07-26T02:56:21.227Z,0
2022-07-26T02:57:21.223Z,3
2022-07-26T02:58:27.009Z,3
2022-07-26T02:59:21.224Z,5
2022-07-26T03:00:21.231Z,5
2022-07-26T03:01:21.259Z,7
2022-07-26T03:02:21.344Z,9
2022-07-26T03:03:21.252Z,11
2022-07-26T03:04:21.229Z,14
2022-07-26T03:05:31.999Z,16
2022-07-26T03:06:21.227Z,22
2022-07-26T03:07:21.226Z,22
2022-07-26T03:08:21.236Z,29
2022-07-26T03:09:21.250Z,29
2022-07-26T03:10:21.242Z,33
2022-07-26T03:11:21.224Z,36
2022-07-26T03:12:21.235Z,42
2022-07-26T03:13:21.238Z,46
2022-07-26T03:14:21.223Z,51
2022-07-26T03:15:21.251Z,55
2022-07-26T03:16:24.791Z,64
2022-07-26T03:17:21.226Z,64
2022-07-26T03:18:21.244Z,70
2022-07-26T03:19:54.721Z,70
2022-07-26T03:20:21.234Z,75
2022-07-26T03:21:21.240Z,75
2022-07-26T03:22:21.224Z,95
2022-07-26T03:23:25.832Z,95
2022-07-26T03:24:21.235Z,114
2022-07-26T03:25:21.226Z,121
2022-07-26T03:26:21.232Z,121
2022-07-26T03:27:21.219Z,138
2022-07-26T03:28:21.255Z,147
2022-07-26T03:29:21.236Z,152
2022-07-26T03:30:24.565Z,158
2022-07-26T03:31:21.312Z,158
2022-07-26T03:32:23.167Z,158
2022-07-26T03:33:21.219Z,180
2022-07-26T03:34:21.220Z,180
2022-07-26T03:35:21.226Z,202
2022-07-26T03:36:21.228Z,202
2022-07-26T03:37:21.226Z,230
2022-07-26T03:38:21.229Z,243
2022-07-26T03:39:21.237Z,258
2022-07-26T03:40:21.223Z,258
2022-07-26T03:41:21.239Z,267
2022-07-26T03:42:21.219Z,276
2022-07-26T03:43:22.946Z,285
2022-07-26T03:44:21.232Z,294
2022-07-26T03:45:21.229Z,294
2022-07-26T03:46:21.305Z,304
2022-07-26T03:47:21.227Z,309
2022-07-26T03:48:21.228Z,302
2022-07-26T03:49:21.263Z,302
2022-07-26T03:50:21.227Z,287
2022-07-26T03:51:21.247Z,287
2022-07-26T03:52:21.242Z,276
2022-07-26T03:53:21.221Z,283
2022-07-26T03:54:21.242Z,300
2022-07-26T03:55:21.220Z,331
2022-07-26T03:56:45.622Z,331
2022-07-26T03:58:05.202Z,357
2022-07-26T03:58:21.221Z,357
2022-07-26T03:59:21.218Z,364
2022-07-26T04:00:21.225Z,355
2022-07-26T04:01:21.303Z,355
2022-07-26T04:02:47.761Z,348
2022-07-26T04:03:21.226Z,353
2022-07-26T04:04:25.179Z,366
2022-07-26T04:05:23.558Z,390
2022-07-26T04:06:34.823Z,418
2022-07-26T04:07:21.224Z,453
2022-07-26T04:08:21.223Z,506
2022-07-26T04:09:21.243Z,549
2022-07-26T04:10:21.235Z,593
2022-07-26T04:11:21.239Z,635
2022-07-26T04:12:27.995Z,685
2022-07-26T04:13:23.995Z,735
2022-07-26T04:14:21.215Z,735
2022-07-26T04:15:21.245Z,860
2022-07-26T04:16:21.301Z,905
2022-07-26T04:17:43.927Z,930
2022-07-26T04:18:47.994Z,930
2022-07-26T04:19:41.816Z,930
2022-07-26T04:20:37.151Z,930
2022-07-26T04:21:21.586Z,1061
2022-07-26T04:22:21.220Z,1061
2022-07-26T04:23:21.220Z,1093
2022-07-26T04:24:21.243Z,1093
2022-07-26T04:25:21.223Z,1093
2022-07-26T04:26:21.239Z,1170
2022-07-26T04:27:33.843Z,1170
2022-07-26T04:28:21.227Z,1161
2022-07-26T04:29:21.223Z,1152
2022-07-26T04:30:21.226Z,1135
2022-07-26T04:31:21.317Z,1085
2022-07-26T04:32:21.231Z,1041
2022-07-26T04:33:21.225Z,1041
2022-07-26T04:34:21.220Z,999
2022-07-26T04:35:21.221Z,1035
2022-07-26T04:36:21.264Z,1104
2022-07-26T04:37:21.221Z,1163
2022-07-26T04:38:21.228Z,1163
2022-07-26T04:39:21.246Z,1198
2022-07-26T04:40:21.665Z,1177
2022-07-26T04:41:21.240Z,1122
2022-07-26T04:42:21.228Z,1122
2022-07-26T04:43:21.219Z,1183
2022-07-26T04:44:21.228Z,1109
2022-07-26T04:45:21.224Z,906
2022-07-26T04:46:35.079Z,906
2022-07-26T04:47:21.229Z,906
2022-07-26T04:48:21.334Z,648
2022-07-26T04:49:28.933Z,597
2022-07-26T04:50:21.221Z,584
2022-07-26T04:51:21.239Z,595
2022-07-26T04:52:21.226Z,611
2022-07-26T04:53:21.221Z,613
2022-07-26T04:54:21.233Z,634
2022-07-26T04:55:21.226Z,634
2022-07-26T04:56:21.227Z,652
2022-07-26T04:57:30.264Z,672
2022-07-26T04:58:44.776Z,672
2022-07-26T04:59:21.963Z,672
2022-07-26T05:00:22.784Z,886
2022-07-26T05:01:21.291Z,1013
2022-07-26T05:02:21.338Z,1054
2022-07-26T05:03:21.233Z,965
2022-07-26T05:04:39.660Z,895
2022-07-26T05:05:21.224Z,895
2022-07-26T05:06:21.237Z,925
2022-07-26T05:07:21.225Z,928
2022-07-26T05:08:25.683Z,833
2022-07-26T05:09:21.251Z,833
2022-07-26T05:10:21.233Z,632
2022-07-26T05:11:21.233Z,606
2022-07-26T05:12:21.223Z,656
2022-07-26T05:13:31.152Z,656
2022-07-26T05:14:21.216Z,779
2022-07-26T05:15:21.222Z,1155
2022-07-26T05:16:21.242Z,1347
2022-07-26T05:17:21.320Z,1531
2022-07-26T05:18:49.087Z,1736
2022-07-26T05:19:49.303Z,1736
2022-07-26T05:20:21.222Z,1736
2022-07-26T05:21:21.247Z,1736
2022-07-26T05:22:21.221Z,1736
2022-07-26T05:23:21.226Z,2176
2022-07-26T05:24:24.676Z,2176
2022-07-26T05:25:21.234Z,2176
2022-07-26T05:26:59.986Z,2456
2022-07-26T05:27:21.226Z,2456
2022-07-26T05:28:33.747Z,2399
2022-07-26T05:29:21.226Z,2399
2022-07-26T05:30:21.230Z,2587
2022-07-26T05:31:21.295Z,2587
2022-07-26T05:32:21.230Z,2617
2022-07-26T05:33:21.411Z,2617
2022-07-26T05:34:54.782Z,2578
2022-07-26T05:35:21.239Z,2506
2022-07-26T05:36:21.239Z,2479
2022-07-26T05:37:21.224Z,2479
2022-07-26T05:38:21.224Z,2451
2022-07-26T05:39:21.229Z,2444
2022-07-26T05:40:21.244Z,2444
2022-07-26T05:41:21.237Z,2444
2022-07-26T05:42:21.229Z,2534
2022-07-26T05:43:21.224Z,2591
2022-07-26T05:44:21.240Z,2825
2022-07-26T05:45:38.397Z,2825
2022-07-26T05:46:21.304Z,3004
2022-07-26T05:47:21.234Z,3048
2022-07-26T05:48:21.225Z,3048
2022-07-26T05:49:21.225Z,3046
2022-07-26T05:50:21.276Z,3022
2022-07-26T05:51:21.232Z,3085
2022-07-26T05:52:21.281Z,3048
2022-07-26T05:53:21.230Z,2958
2022-07-26T05:54:22.946Z,2958
2022-07-26T05:55:21.257Z,2827
2022-07-26T05:56:21.234Z,2978
2022-07-26T05:57:36.800Z,3220
2022-07-26T05:58:21.224Z,3446
2022-07-26T05:59:21.229Z,3446
2022-07-26T06:00:26.800Z,3446
2022-07-26T06:01:21.252Z,3446
2022-07-26T06:02:21.343Z,3380
2022-07-26T06:03:47.859Z,3448
2022-07-26T06:04:21.332Z,3448
2022-07-26T06:05:21.224Z,3669
2022-07-26T06:06:21.234Z,3708
2022-07-26T06:07:21.240Z,3765
2022-07-26T06:08:21.243Z,3846
2022-07-26T06:09:21.266Z,3811
2022-07-26T06:10:21.249Z,3811
2022-07-26T06:11:21.249Z,3811
2022-07-26T06:12:21.226Z,3802
2022-07-26T06:13:21.233Z,4064
2022-07-26T06:15:01.007Z,4169
2022-07-26T06:15:43.716Z,4169
2022-07-26T06:16:21.252Z,4309
2022-07-26T06:18:03.859Z,4309
2022-07-26T06:18:21.228Z,4467
2022-07-26T06:19:21.226Z,4681
2022-07-26T06:20:43.142Z,4681
2022-07-26T06:21:21.247Z,4692
2022-07-26T06:22:48.405Z,4737
2022-07-26T06:23:34.352Z,4738
2022-07-26T06:24:21.228Z,4744
2022-07-26T06:25:21.239Z,4744
2022-07-26T06:26:21.270Z,4690
2022-07-26T06:27:21.249Z,4646
2022-07-26T06:28:21.258Z,4589
2022-07-26T06:29:21.237Z,4589
2022-07-26T06:30:21.253Z,4515
2022-07-26T06:31:21.308Z,4515
2022-07-26T06:32:21.240Z,4508
2022-07-26T06:33:21.235Z,4534
2022-07-26T06:34:21.238Z,4525
2022-07-26T06:35:21.226Z,4525
2022-07-26T06:37:18.653Z,4536
2022-07-26T06:37:21.112Z,4536
2022-07-26T06:38:21.226Z,4880
2022-07-26T06:39:32.722Z,4880
2022-07-26T06:40:21.235Z,4880
2022-07-26T06:41:21.222Z,4880
2022-07-26T06:42:21.252Z,5046
2022-07-26T06:43:21.232Z,5063
2022-07-26T06:44:21.281Z,5068
2022-07-26T06:45:21.237Z,5024
2022-07-26T06:46:21.631Z,5024
2022-07-26T06:47:21.243Z,5078
2022-07-26T06:48:21.237Z,5138
2022-07-26T06:49:22.857Z,5271
2022-07-26T06:50:25.539Z,5374
2022-07-26T06:51:21.221Z,5459
2022-07-26T06:52:21.238Z,5498
2022-07-26T06:53:48.215Z,5498
2022-07-26T06:54:21.233Z,5483
2022-07-26T06:55:21.240Z,5583
2022-07-26T06:56:21.232Z,5621
2022-07-26T06:57:26.488Z,5621
2022-07-26T06:58:21.229Z,5708
2022-07-26T06:59:21.225Z,5772
2022-07-26T07:00:21.227Z,5846
2022-07-26T07:01:58.660Z,5999
2022-07-26T07:02:21.230Z,6030
2022-07-26T07:03:21.237Z,6108
2022-07-26T07:04:51.625Z,6108
2022-07-26T07:05:21.309Z,6246
2022-07-26T07:06:21.235Z,6292
2022-07-26T07:07:21.224Z,6292
2022-07-26T07:08:21.236Z,6386
2022-07-26T07:09:21.223Z,6395
2022-07-26T07:10:23.751Z,6322
2022-07-26T07:11:21.211Z,6222
2022-07-26T07:12:21.214Z,6180
2022-07-26T07:13:21.238Z,6030
2022-07-26T07:14:21.229Z,5979
2022-07-26T07:15:21.216Z,5979
2022-07-26T07:16:48.939Z,5918
2022-07-26T07:17:41.231Z,5918
2022-07-26T07:18:21.195Z,5918
2022-07-26T07:19:21.224Z,5809
2022-07-26T07:20:21.248Z,5946
2022-07-26T07:21:21.245Z,6095
2022-07-26T07:22:21.863Z,6265
2022-07-26T07:23:21.246Z,6347
2022-07-26T07:24:21.218Z,6347
2022-07-26T07:25:25.750Z,6609
2022-07-26T07:26:21.246Z,6486
2022-07-26T07:27:21.239Z,6395
2022-07-26T07:28:21.229Z,6421
2022-07-26T07:29:21.224Z,6550
2022-07-26T07:30:57.447Z,6600
2022-07-26T07:31:23.615Z,6600
2022-07-26T07:32:28.533Z,6679
2022-07-26T07:33:22.810Z,6683
2022-07-26T07:35:02.412Z,6720
2022-07-26T07:35:21.226Z,6720
2022-07-26T07:36:21.232Z,6725
2022-07-26T07:37:21.236Z,6910
2022-07-26T07:38:22.514Z,6753
2022-07-26T07:40:01.423Z,6753
2022-07-26T07:40:21.262Z,6834
2022-07-26T07:41:21.239Z,6834
2022-07-26T07:42:21.241Z,6893
2022-07-26T07:43:21.235Z,7009
2022-07-26T07:44:21.236Z,7009
2022-07-26T07:45:21.231Z,6917
2022-07-26T07:46:21.294Z,7059
2022-07-26T07:47:21.233Z,7059
2022-07-26T07:48:21.238Z,6959
2022-07-26T07:49:56.116Z,7140
2022-07-26T07:50:21.350Z,7140
2022-07-26T07:51:21.229Z,7140
2022-07-26T07:52:21.271Z,7335
2022-07-26T07:53:21.225Z,7614
2022-07-26T07:54:22.270Z,7804
2022-07-26T07:55:36.403Z,7804
2022-07-26T07:56:21.267Z,7887
2022-07-26T07:57:21.238Z,7934
2022-07-26T07:58:21.228Z,8263
2022-07-26T07:59:22.781Z,8351
2022-07-26T08:00:27.283Z,8351
2022-07-26T08:01:21.315Z,8185
2022-07-26T08:02:21.235Z,8185
2022-07-26T08:03:21.221Z,8185
2022-07-26T08:04:21.263Z,8299
2022-07-26T08:05:21.620Z,8609
2022-07-26T08:06:21.221Z,8821
2022-07-26T08:07:21.257Z,8919
2022-07-26T08:08:22.639Z,8919
2022-07-26T08:09:21.227Z,8742
2022-07-26T08:10:21.288Z,8253
2022-07-26T08:11:22.887Z,8028
2022-07-26T08:12:21.233Z,7468
2022-07-26T08:13:21.646Z,7315
2022-07-26T08:15:36.766Z,7177
2022-07-26T08:15:39.343Z,7177
2022-07-26T08:16:34.723Z,7177
2022-07-26T08:17:21.246Z,7888
2022-07-26T08:18:22.303Z,7664
2022-07-26T08:19:50.544Z,7370
2022-07-26T08:20:22.880Z,7370
2022-07-26T08:21:21.230Z,7394
2022-07-26T08:22:24.311Z,7352
2022-07-26T08:23:21.245Z,7352
2022-07-26T08:24:21.232Z,7219
2022-07-26T08:25:21.249Z,7251
2022-07-26T08:26:21.226Z,7109
2022-07-26T08:27:21.233Z,7068
2022-07-26T08:28:45.227Z,7068
2022-07-26T08:29:31.618Z,7068
2022-07-26T08:30:21.224Z,7155
2022-07-26T08:31:34.822Z,7441
2022-07-26T08:32:21.243Z,7441
2022-07-26T08:33:21.225Z,7907
2022-07-26T08:34:21.221Z,8287
2022-07-26T08:35:21.220Z,8401
2022-07-26T08:36:21.225Z,8569
2022-07-26T08:37:21.238Z,8769
2022-07-26T08:38:21.233Z,8760
2022-07-26T08:39:44.991Z,8731
2022-07-26T08:40:36.060Z,8731
2022-07-26T08:41:21.221Z,8731
2022-07-26T08:42:22.502Z,8994
2022-07-26T08:43:21.229Z,8539
2022-07-26T08:44:21.228Z,8589
2022-07-26T08:45:21.223Z,8851
2022-07-26T08:46:26.371Z,8873
2022-07-26T08:47:37.567Z,9180
2022-07-26T08:48:21.232Z,8762
2022-07-26T08:49:21.323Z,9221
2022-07-26T08:50:21.232Z,8816
2022-07-26T08:51:21.223Z,8816
2022-07-26T08:52:21.232Z,8957
2022-07-26T08:53:21.238Z,8819
2022-07-26T08:54:21.224Z,9064
2022-07-26T08:55:21.222Z,9501
2022-07-26T08:56:26.315Z,10412
2022-07-26T08:57:37.869Z,10237
2022-07-26T08:58:21.233Z,10237
2022-07-26T08:59:57.827Z,12482
2022-07-26T09:00:21.239Z,12482
2022-07-26T09:01:21.381Z,12482
2022-07-26T09:02:55.600Z,12218
2022-07-26T09:03:21.293Z,12675
2022-07-26T09:04:31.510Z,12201
2022-07-26T09:05:21.228Z,11671
2022-07-26T09:06:21.230Z,12579
2022-07-26T09:07:45.129Z,12579
2022-07-26T09:08:21.235Z,12871
2022-07-26T09:09:21.261Z,11606
2022-07-26T09:10:21.251Z,11606
2022-07-26T09:11:21.221Z,13239
2022-07-26T09:12:21.229Z,13239
2022-07-26T09:13:21.243Z,14159
2022-07-26T09:14:21.253Z,11802
2022-07-26T09:15:52.462Z,11669
2022-07-26T09:16:25.548Z,11669
2022-07-26T09:17:39.226Z,13029
2022-07-26T09:18:21.226Z,10056
2022-07-26T09:19:21.237Z,9310
2022-07-26T09:20:24.277Z,9726
2022-07-26T09:21:21.225Z,10415
2022-07-26T09:22:21.230Z,12251
2022-07-26T09:23:21.276Z,12578
2022-07-26T09:24:21.233Z,14391
2022-07-26T09:25:21.230Z,14907
2022-07-26T09:26:21.237Z,14907
2022-07-26T09:27:33.057Z,14907
2022-07-26T09:28:21.243Z,11284
2022-07-26T09:29:21.239Z,11284
2022-07-26T09:30:21.227Z,10198
2022-07-26T09:31:21.382Z,8976
2022-07-26T09:32:21.222Z,8672
2022-07-26T09:33:21.225Z,10135
2022-07-26T09:34:21.263Z,10135
2022-07-26T09:35:45.350Z,7787
2022-07-26T09:36:21.233Z,7608
2022-07-26T09:37:21.243Z,7608
2022-07-26T09:38:21.232Z,7354
2022-07-26T09:39:33.692Z,7354
2022-07-26T09:40:21.227Z,6902
2022-07-26T09:41:44.636Z,7157
2022-07-26T09:42:27.518Z,7157
2022-07-26T09:43:23.926Z,9387
2022-07-26T09:44:21.257Z,13908
2022-07-26T09:45:21.267Z,14889
2022-07-26T09:46:21.301Z,15573
2022-07-26T09:47:21.234Z,15573
2022-07-26T09:48:21.238Z,10895
2022-07-26T09:49:21.281Z,15611
2022-07-26T09:50:21.402Z,16083
2022-07-26T09:51:21.226Z,16214
2022-07-26T09:52:21.222Z,13783
2022-07-26T09:53:25.284Z,14504
2022-07-26T09:54:21.248Z,14504
2022-07-26T09:55:21.227Z,15243
2022-07-26T09:56:21.332Z,15243
2022-07-26T09:57:42.601Z,13807
2022-07-26T09:58:21.247Z,13822
2022-07-26T09:59:21.658Z,12364
2022-07-26T10:00:21.256Z,11717
2022-07-26T10:01:21.292Z,9892
2022-07-26T10:02:21.234Z,9892
2022-07-26T10:03:21.227Z,9440
2022-07-26T10:04:21.255Z,10207
2022-07-26T10:05:21.222Z,10646
2022-07-26T10:06:32.459Z,9916
2022-07-26T10:07:21.220Z,9916
2022-07-26T10:09:02.791Z,8353
2022-07-26T10:09:21.237Z,8353
2022-07-26T10:10:21.236Z,8353
2022-07-26T10:11:21.230Z,11413
2022-07-26T10:12:21.239Z,9837
2022-07-26T10:13:21.243Z,11514
2022-07-26T10:14:21.385Z,11693
2022-07-26T10:15:21.245Z,13659
2022-07-26T10:16:35.500Z,13659
2022-07-26T10:17:21.232Z,11237
2022-07-26T10:18:21.235Z,12907
2022-07-26T10:19:21.249Z,12907
2022-07-26T10:20:24.430Z,12907
2022-07-26T10:21:21.225Z,11746
2022-07-26T10:22:21.245Z,9597
2022-07-26T10:23:21.230Z,9597
2022-07-26T10:24:21.296Z,13995
2022-07-26T10:25:21.230Z,13995
2022-07-26T10:26:21.234Z,15123
2022-07-26T10:27:21.224Z,15123
2022-07-26T10:28:23.121Z,12736
2022-07-26T10:29:21.899Z,12736
2022-07-26T10:30:21.225Z,12797
2022-07-26T10:31:21.340Z,11505
2022-07-26T10:32:21.225Z,14821
2022-07-26T10:33:21.237Z,14612
2022-07-26T10:34:25.012Z,10515
2022-07-26T10:35:21.226Z,9555
2022-07-26T10:36:40.083Z,8609
2022-07-26T10:37:21.240Z,8609
2022-07-26T10:38:21.225Z,7887
2022-07-26T10:39:21.229Z,8534
2022-07-26T10:40:21.305Z,15449
2022-07-26T10:41:33.790Z,8913
2022-07-26T10:42:21.227Z,8303
2022-07-26T10:43:40.024Z,9085
2022-07-26T10:44:21.245Z,18785
2022-07-26T10:45:21.234Z,19394
2022-07-26T10:46:21.304Z,17010
2022-07-26T10:47:21.224Z,10979
2022-07-26T10:48:31.862Z,11444
2022-07-26T10:49:21.228Z,16511
2022-07-26T10:50:29.243Z,16511
2022-07-26T10:51:22.013Z,16511
2022-07-26T10:52:21.240Z,15622
2022-07-26T10:53:21.244Z,17460
2022-07-26T10:54:30.386Z,17460
2022-07-26T10:55:21.250Z,19654
2022-07-26T10:56:21.235Z,19654
2022-07-26T10:57:21.235Z,21399
2022-07-26T10:58:21.233Z,21755
2022-07-26T10:59:53.258Z,21755
2022-07-26T11:00:21.239Z,21019
2022-07-26T11:01:21.350Z,20606
2022-07-26T11:02:21.303Z,21394
2022-07-26T11:03:29.324Z,21394
2022-07-26T11:04:21.269Z,21233
2022-07-26T11:05:21.239Z,18618
2022-07-26T11:06:21.223Z,14896
2022-07-26T11:07:21.227Z,12495
2022-07-26T11:08:21.222Z,9883
2022-07-26T11:09:21.447Z,8056
2022-07-26T11:10:33.417Z,8056
2022-07-26T11:11:21.230Z,6952
2022-07-26T11:12:21.243Z,5542
2022-07-26T11:13:21.230Z,5076
2022-07-26T11:14:21.228Z,4635
2022-07-26T11:15:21.262Z,4635
2022-07-26T11:16:21.385Z,4167
2022-07-26T11:17:21.240Z,4246
2022-07-26T11:19:00.757Z,4246
2022-07-26T11:19:21.227Z,4246
2022-07-26T11:20:22.028Z,4246
2022-07-26T11:21:21.249Z,6775
2022-07-26T11:22:21.231Z,7505
2022-07-26T11:23:21.240Z,7505
2022-07-26T11:24:37.642Z,14974
2022-07-26T11:25:21.225Z,14974
2022-07-26T11:26:21.242Z,14504
2022-07-26T11:27:21.235Z,12060
2022-07-26T11:28:21.241Z,9654
2022-07-26T11:29:40.516Z,9654
2022-07-26T11:30:21.136Z,8664
2022-07-26T11:31:21.419Z,7254
2022-07-26T11:32:21.925Z,6932
2022-07-26T11:33:21.243Z,7046
2022-07-26T11:34:21.249Z,7164
2022-07-26T11:35:21.290Z,7837
2022-07-26T11:36:21.233Z,8784
2022-07-26T11:37:25.601Z,8784
2022-07-26T11:38:21.219Z,10176
2022-07-26T11:39:21.242Z,21499
2022-07-26T11:40:21.224Z,20151
2022-07-26T11:41:21.234Z,21394
2022-07-26T11:42:21.220Z,21145
2022-07-26T11:43:21.240Z,21145
2022-07-26T11:44:21.222Z,12356
2022-07-26T11:45:21.243Z,10985
2022-07-26T11:46:21.328Z,20026
2022-07-26T11:47:21.218Z,21121
2022-07-26T11:48:21.240Z,21121
2022-07-26T11:49:22.915Z,12194
2022-07-26T11:50:23.163Z,15578
2022-07-26T11:51:21.237Z,18138
2022-07-26T11:52:25.475Z,20959
2022-07-26T11:53:21.230Z,20959
2022-07-26T11:54:21.227Z,21285
2022-07-26T11:55:21.219Z,18304
2022-07-26T11:56:21.241Z,18304
2022-07-26T11:57:21.232Z,21307
2022-07-26T11:58:21.226Z,12522
2022-07-26T11:59:21.231Z,16736
2022-07-26T12:00:21.229Z,16736
2022-07-26T12:01:21.245Z,13040
2022-07-26T12:02:21.238Z,20336
2022-07-26T12:03:41.311Z,20336
2022-07-26T12:04:21.344Z,13337
2022-07-26T12:05:38.760Z,13337
2022-07-26T12:06:21.242Z,21965
2022-07-26T12:07:42.013Z,21965
2022-07-26T12:08:21.553Z,21965
2022-07-26T12:09:21.223Z,21965
2022-07-26T12:10:21.221Z,12655
2022-07-26T12:11:21.257Z,12655
2022-07-26T12:13:13.499Z,9555
2022-07-26T12:13:21.263Z,9555
2022-07-26T12:14:21.613Z,9555
2022-07-26T12:16:27.958Z,8231
2022-07-26T12:16:28.157Z,8231
2022-07-26T12:18:31.216Z,8231
2022-07-26T12:18:31.389Z,8231
2022-07-26T12:19:46.552Z,8231
2022-07-26T12:20:21.217Z,8231
2022-07-26T12:21:21.719Z,10897
2022-07-26T12:22:21.210Z,10897
2022-07-26T12:23:21.215Z,11077
2022-07-26T12:24:21.209Z,11617
2022-07-26T12:25:25.979Z,14399
2022-07-26T12:26:21.254Z,14050
2022-07-26T12:27:21.221Z,20013
2022-07-26T12:28:21.228Z,20524
2022-07-26T12:29:21.242Z,20524
2022-07-26T12:30:21.240Z,20524
2022-07-26T12:31:21.336Z,18723
2022-07-26T12:32:21.242Z,16096
2022-07-26T12:33:21.234Z,16096
2022-07-26T12:34:21.222Z,11575
2022-07-26T12:35:21.222Z,11575
2022-07-26T12:36:27.841Z,20487
2022-07-26T12:37:28.951Z,20487
2022-07-26T12:38:21.231Z,12189
2022-07-26T12:39:21.222Z,12189
2022-07-26T12:40:28.683Z,17786
2022-07-26T12:41:21.592Z,14749
2022-07-26T12:42:33.242Z,14749
2022-07-26T12:43:21.238Z,13062
2022-07-26T12:44:21.240Z,10274
2022-07-26T12:45:21.231Z,10274
2022-07-26T12:46:21.264Z,10209
2022-07-26T12:47:21.243Z,10251
2022-07-26T12:48:21.238Z,11191
2022-07-26T12:49:21.795Z,10653
2022-07-26T12:50:33.445Z,10653
2022-07-26T12:51:21.238Z,11390
2022-07-26T12:52:21.228Z,11390
2022-07-26T12:53:21.228Z,21053
2022-07-26T12:54:22.636Z,21053
2022-07-26T12:55:21.213Z,21053
2022-07-26T12:56:21.242Z,9848
2022-07-26T12:57:21.236Z,9848
2022-07-26T12:58:21.224Z,9286
2022-07-26T12:59:23.584Z,9300
2022-07-26T13:00:50.070Z,9300
2022-07-26T13:01:21.398Z,8832
2022-07-26T13:02:21.239Z,8576
2022-07-26T13:03:21.229Z,8602
2022-07-26T13:04:21.278Z,8602
2022-07-26T13:05:21.311Z,9813
2022-07-26T13:06:21.230Z,9813
2022-07-26T13:07:21.223Z,9813
2022-07-26T13:08:21.226Z,24062
2022-07-26T13:09:21.225Z,23825
2022-07-26T13:10:34.094Z,23825
2022-07-26T13:11:21.261Z,24284
2022-07-26T13:12:21.224Z,24365
2022-07-26T13:13:21.235Z,24037
2022-07-26T13:14:21.224Z,9418
2022-07-26T13:16:00.470Z,9418
2022-07-26T13:16:21.310Z,12155
2022-07-26T13:17:29.906Z,12155
2022-07-26T13:18:21.233Z,12391
2022-07-26T13:19:40.910Z,9593
2022-07-26T13:20:59.164Z,9593
2022-07-26T13:21:21.244Z,9527
2022-07-26T13:22:39.089Z,9527
2022-07-26T13:23:21.873Z,11398
2022-07-26T13:24:21.224Z,12131
2022-07-26T13:25:21.229Z,19626
2022-07-26T13:26:21.231Z,19626
2022-07-26T13:27:57.608Z,19626
2022-07-26T13:28:21.229Z,19626
2022-07-26T13:29:21.224Z,21198
2022-07-26T13:30:21.273Z,12767
2022-07-26T13:31:21.327Z,21655
2022-07-26T13:32:21.523Z,21655
2022-07-26T13:33:21.221Z,21655
2022-07-26T13:34:21.226Z,10981